Time;durP1;ratioP1;P1;durP2;ratioP2;P2;SDS_P1;SDS_P2;PMS_P1;PMS_P2;Temp;Humidity;BMP_temperature;BMP_pressure;BME280_temperature;BME280_humidity;BME280_pressure;Samples;Min_cycle;Max_cycle;Signal;HPM_P1;HPM_P2
2022/06/28 00:00:31;;;;;;;8.40;7.68;;;22.10;99.90;;;;;;6189111;28;20270;-68
2022/06/28 00:03:36;;;;;;;9.38;8.43;;;22.10;99.90;;;;;;6186422;28;20461;-67
2022/06/28 00:06:43;;;;;;;7.93;7.50;;;22.10;99.90;;;;;;6165028;28;20302;-67
2022/06/28 00:09:48;;;;;;;8.45;7.85;;;22.00;99.90;;;;;;6164401;28;20294;-67
2022/06/28 00:12:53;;;;;;;11.15;7.47;;;22.00;99.90;;;;;;6165104;28;20294;-68
2022/06/28 00:16:08;;;;;;;8.23;7.63;;;22.00;99.90;;;;;;6164571;29;20274;-68
2022/06/28 00:19:14;;;;;;;8.07;7.43;;;22.00;99.90;;;;;;6164922;29;20275;-65
2022/06/28 00:22:21;;;;;;;8.73;8.02;;;21.90;99.90;;;;;;6164716;29;20274;-67
2022/06/28 00:25:26;;;;;;;8.70;7.53;;;21.90;99.90;;;;;;6165085;28;20459;-67
2022/06/28 00:28:32;;;;;;;7.85;7.45;;;21.90;99.90;;;;;;6164547;28;20279;-67
2022/06/28 00:31:38;;;;;;;8.82;7.63;;;21.90;99.90;;;;;;6163621;28;20290;-66
2022/06/28 00:34:43;;;;;;;7.65;7.20;;;21.80;99.90;;;;;;6163530;28;20274;-66
2022/06/28 00:37:50;;;;;;;7.82;7.15;;;21.80;99.90;;;;;;6164647;28;20455;-67
2022/06/28 00:40:57;;;;;;;7.97;7.50;;;21.90;99.90;;;;;;6164057;29;20294;-67
2022/06/28 00:44:04;;;;;;;8.95;7.28;;;21.90;99.90;;;;;;6163410;28;20464;-67
2022/06/28 00:47:10;;;;;;;7.85;7.05;;;21.90;99.90;;;;;;6163155;28;20275;-67
2022/06/28 00:50:15;;;;;;;8.30;7.43;;;21.80;99.90;;;;;;6163026;29;20279;-67
2022/06/28 00:53:22;;;;;;;7.40;7.00;;;21.80;99.90;;;;;;6164312;29;20294;-67
2022/06/28 00:56:28;;;;;;;7.60;7.03;;;21.70;99.90;;;;;;6164570;28;20279;-68
2022/06/28 00:59:34;;;;;;;7.90;7.22;;;21.80;99.90;;;;;;6163335;29;20440;-68
2022/06/28 01:02:41;;;;;;;8.10;7.45;;;21.70;99.90;;;;;;6163448;28;20659;-67
2022/06/28 01:05:49;;;;;;;8.45;7.57;;;21.70;99.90;;;;;;6164241;29;20542;-67
2022/06/28 01:08:56;;;;;;;7.97;6.82;;;21.60;99.90;;;;;;6162541;29;20306;-67
2022/06/28 01:12:06;;;;;;;7.78;7.05;;;21.70;99.90;;;;;;6162325;29;20295;-67
2022/06/28 01:15:13;;;;;;;7.75;7.25;;;21.70;99.90;;;;;;6162504;29;20278;-67
2022/06/28 01:18:37;;;;;;;7.45;7.05;;;21.70;99.90;;;;;;6162749;29;20274;-68
2022/06/28 01:22:04;;;;;;;7.85;7.18;;;21.70;99.90;;;;;;6164752;28;20278;-68
2022/06/28 01:25:12;;;;;;;7.72;7.10;;;21.70;99.90;;;;;;6167101;29;20449;-67
2022/06/28 01:28:22;;;;;;;7.43;7.13;;;21.70;99.90;;;;;;6167250;29;20550;-67
2022/06/28 01:31:31;;;;;;;10.90;7.43;;;21.80;99.90;;;;;;6166779;29;20527;-67
2022/06/28 01:34:39;;;;;;;7.75;7.25;;;21.80;99.90;;;;;;6166736;29;20274;-67
2022/06/28 01:37:44;;;;;;;8.93;8.13;;;21.90;99.90;;;;;;6166927;29;20274;-67
2022/06/28 01:40:51;;;;;;;10.07;7.97;;;21.90;99.90;;;;;;6167015;29;20278;-67
2022/06/28 01:43:58;;;;;;;8.82;7.90;;;21.80;99.90;;;;;;6166777;29;20561;-67
2022/06/28 01:47:07;;;;;;;8.48;7.88;;;21.80;99.90;;;;;;6166511;29;20278;-67
2022/06/28 01:50:31;;;;;;;9.07;8.25;;;21.90;99.90;;;;;;6167887;28;20270;-67
2022/06/28 01:53:38;;;;;;;8.40;7.80;;;21.80;99.90;;;;;;6166450;29;20294;-67
2022/06/28 01:57:00;;;;;;;9.73;9.02;;;21.80;99.90;;;;;;6166595;29;20455;-67
2022/06/28 02:00:14;;;;;;;10.50;8.50;;;21.90;99.90;;;;;;6166317;29;20274;-67
2022/06/28 02:03:19;;;;;;;9.63;8.93;;;21.80;99.90;;;;;;6167938;29;20278;-67
2022/06/28 02:06:33;;;;;;;8.95;8.35;;;21.80;99.90;;;;;;6166143;28;20578;-67
2022/06/28 02:09:44;;;;;;;9.68;8.82;;;21.90;99.90;;;;;;6166483;29;20269;-67
2022/06/28 02:12:52;;;;;;;9.55;8.80;;;21.90;99.90;;;;;;6166404;29;20298;-67
2022/06/28 02:15:57;;;;;;;12.18;9.38;;;21.80;99.90;;;;;;6167846;28;20336;-67
2022/06/28 02:19:03;;;;;;;9.70;8.90;;;21.70;99.90;;;;;;6166550;28;20274;-67
2022/06/28 02:22:09;;;;;;;9.50;8.70;;;21.70;99.90;;;;;;6165831;29;20582;-67
2022/06/28 02:25:17;;;;;;;15.88;9.68;;;21.70;99.90;;;;;;6166504;28;20554;-67
2022/06/28 02:28:23;;;;;;;9.88;9.27;;;21.70;99.90;;;;;;6167175;29;20279;-67
2022/06/28 02:31:31;;;;;;;10.57;9.75;;;21.70;99.90;;;;;;6166352;28;20274;-67
2022/06/28 02:41:22;;;;;;;10.35;9.50;;;21.70;99.90;;;;;;6167071;29;20274;-67
2022/06/28 02:44:28;;;;;;;10.80;9.82;;;21.80;99.90;;;;;;6166101;28;20588;-67
2022/06/28 02:47:33;;;;;;;11.65;10.00;;;21.90;99.90;;;;;;6150000;29;20413;-67
2022/06/28 02:50:39;;;;;;;11.20;10.07;;;21.90;99.90;;;;;;6165799;29;20274;-67
2022/06/28 02:53:44;;;;;;;14.32;9.80;;;21.90;99.90;;;;;;6166819;29;20295;-67
2022/06/28 02:56:50;;;;;;;11.07;9.93;;;22.00;99.90;;;;;;6165637;28;20275;-68
2022/06/28 02:59:56;;;;;;;11.18;10.13;;;22.00;99.90;;;;;;6166900;28;20274;-67
2022/06/28 03:03:02;;;;;;;11.57;10.48;;;22.00;99.90;;;;;;6166202;29;20278;-67
2022/06/28 03:06:09;;;;;;;11.85;9.98;;;21.90;99.90;;;;;;6165064;29;20271;-67
2022/06/28 03:09:17;;;;;;;12.02;10.10;;;22.00;99.90;;;;;;6164594;29;20486;-68
2022/06/28 03:12:22;;;;;;;10.80;10.05;;;22.00;99.90;;;;;;6166066;29;20275;-67
2022/06/28 03:15:29;;;;;;;10.45;9.65;;;22.00;99.90;;;;;;6164785;29;20294;-67
2022/06/28 03:18:35;;;;;;;15.30;9.93;;;22.00;99.90;;;;;;6165098;29;20433;-67
2022/06/28 03:21:41;;;;;;;10.90;9.75;;;22.20;99.90;;;;;;6166086;28;20270;-67
2022/06/28 03:24:47;;;;;;;10.88;9.98;;;22.20;99.90;;;;;;6164847;29;20282;-67
2022/06/28 03:27:53;;;;;;;10.77;10.07;;;22.20;99.90;;;;;;6164514;29;20278;-67
2022/06/28 03:30:59;;;;;;;11.75;10.52;;;22.20;99.90;;;;;;6164721;29;20271;-67
2022/06/28 03:34:05;;;;;;;10.85;10.07;;;22.20;99.90;;;;;;6180486;28;20294;-68
2022/06/28 03:37:12;;;;;;;11.05;10.02;;;22.30;99.90;;;;;;6164331;29;20274;-67
2022/06/28 03:40:22;;;;;;;9.93;9.30;;;22.40;99.90;;;;;;6165436;29;20275;-67
2022/06/28 03:43:27;;;;;;;11.27;10.40;;;22.50;99.90;;;;;;6165498;29;20279;-68
2022/06/28 03:46:35;;;;;;;12.38;10.75;;;22.50;99.90;;;;;;6163015;29;20271;-67
2022/06/28 03:50:16;;;;;;;14.73;9.43;;;22.50;99.90;;;;;;6116611;28;20276;-67
2022/06/28 03:53:21;;;;;;;11.05;9.95;;;22.60;99.90;;;;;;6165331;29;20274;-67
2022/06/28 03:56:48;;;;;;;11.57;10.43;;;22.60;99.90;;;;;;6163898;29;20279;-67
2022/06/28 03:59:56;;;;;;;11.57;10.65;;;22.50;99.90;;;;;;6163771;29;20275;-67
2022/06/28 04:03:04;;;;;;;11.73;10.57;;;22.50;99.90;;;;;;6163694;29;20274;-68
2022/06/28 04:06:17;;;;;;;10.75;9.95;;;22.60;99.90;;;;;;6165366;29;20266;-68
2022/06/28 04:09:24;;;;;;;11.88;9.82;;;22.60;99.90;;;;;;6164088;28;20274;-67
2022/06/28 04:12:33;;;;;;;10.73;9.65;;;22.80;99.90;;;;;;6163892;28;20294;-68
2022/06/28 04:15:52;;;;;;;10.30;9.38;;;22.80;99.90;;;;;;6163773;28;20452;-67
2022/06/28 04:19:03;;;;;;;10.82;9.73;;;22.90;99.90;;;;;;6163784;28;20322;-68
2022/06/28 04:22:15;;;;;;;10.65;9.32;;;23.00;99.90;;;;;;6163283;29;20278;-68
2022/06/28 04:25:20;;;;;;;10.02;9.38;;;23.00;99.90;;;;;;6163675;28;20278;-67
2022/06/28 04:28:36;;;;;;;9.57;9.02;;;23.00;99.90;;;;;;6163764;29;20283;-68
2022/06/28 04:31:45;;;;;;;9.70;8.93;;;23.10;99.90;;;;;;6163500;29;20283;-67
2022/06/28 04:34:52;;;;;;;9.40;8.75;;;23.20;99.90;;;;;;6163380;29;20298;-67
2022/06/28 04:37:58;;;;;;;9.48;8.88;;;23.30;99.90;;;;;;6163499;28;20279;-68
2022/06/28 04:41:24;;;;;;;8.60;7.80;;;23.20;99.90;;;;;;6147708;29;20274;-67
2022/06/28 04:44:35;;;;;;;9.93;9.13;;;23.40;99.90;;;;;;6163427;28;20593;-67
2022/06/28 04:47:42;;;;;;;9.57;7.55;;;23.40;99.90;;;;;;6163278;28;20274;-67
2022/06/28 04:50:49;;;;;;;8.48;7.88;;;23.50;99.90;;;;;;6162944;28;20274;-67
2022/06/28 04:53:56;;;;;;;10.32;7.60;;;23.70;99.90;;;;;;6163990;29;20274;-67
2022/06/28 04:57:01;;;;;;;10.15;8.40;;;23.80;99.90;;;;;;6162958;28;20294;-66
2022/06/28 05:00:10;;;;;;;13.88;8.07;;;23.90;99.90;;;;;;6163114;29;20274;-67
2022/06/28 05:03:22;;;;;;;9.43;7.47;;;24.00;99.90;;;;;;6163078;29;20274;-67
2022/06/28 05:06:41;;;;;;;7.95;7.20;;;24.00;99.90;;;;;;6165952;28;20283;-66
2022/06/28 05:09:47;;;;;;;10.00;7.28;;;24.10;99.90;;;;;;6170603;28;20577;-67
2022/06/28 05:12:52;;;;;;;13.95;8.27;;;24.20;99.90;;;;;;6187899;28;20277;-67
2022/06/28 05:15:58;;;;;;;9.45;8.10;;;24.20;99.90;;;;;;6170456;28;20301;-67
2022/06/28 05:19:03;;;;;;;12.95;7.53;;;24.30;99.90;;;;;;6170834;28;20278;-67
2022/06/28 05:22:14;;;;;;;7.78;7.18;;;24.40;99.90;;;;;;6170786;28;20447;-67
2022/06/28 05:25:42;;;;;;;7.28;6.82;;;26.30;99.90;;;;;;6187126;28;20277;-67
2022/06/28 05:28:48;;;;;;;7.13;6.72;;;27.30;99.40;;;;;;6170305;28;20270;-67
2022/06/28 05:31:53;;;;;;;8.75;6.80;;;26.90;99.70;;;;;;6187723;28;20274;-67
2022/06/28 05:34:58;;;;;;;8.18;7.13;;;26.60;99.20;;;;;;6170470;28;20290;-67
2022/06/28 05:38:06;;;;;;;7.78;7.18;;;26.60;99.30;;;;;;6187889;28;20273;-67
2022/06/28 05:41:11;;;;;;;6.95;6.50;;;26.60;98.90;;;;;;6170516;28;20278;-67
2022/06/28 05:44:17;;;;;;;6.53;5.97;;;26.60;98.90;;;;;;6169924;28;20581;-67
2022/06/28 05:47:23;;;;;;;7.40;6.88;;;26.50;98.50;;;;;;6170120;28;20474;-67
2022/06/28 05:50:28;;;;;;;6.75;6.00;;;26.50;99.90;;;;;;6187399;28;20277;-67
2022/06/28 05:53:34;;;;;;;6.45;6.07;;;26.50;98.20;;;;;;6170415;28;20565;-67
2022/06/28 05:56:40;;;;;;;7.07;6.50;;;26.60;98.40;;;;;;6169409;28;20428;-68
2022/06/28 05:59:45;;;;;;;8.85;6.97;;;26.60;97.30;;;;;;6170085;28;20277;-68
2022/06/28 06:02:51;;;;;;;7.30;6.30;;;26.60;98.10;;;;;;6169612;28;20278;-68
2022/06/28 06:05:56;;;;;;;10.65;6.35;;;26.70;98.40;;;;;;6166335;28;20266;-67
2022/06/28 06:09:03;;;;;;;8.57;6.28;;;26.80;97.50;;;;;;6177516;28;20298;-68
2022/06/28 06:12:12;;;;;;;6.82;6.30;;;26.90;97.50;;;;;;6167803;28;20278;-68
2022/06/28 06:15:17;;;;;;;10.43;6.22;;;27.00;97.20;;;;;;6167638;28;20577;-68
2022/06/28 06:18:22;;;;;;;12.63;6.57;;;27.00;96.90;;;;;;6181927;28;20278;-67
2022/06/28 06:21:29;;;;;;;6.72;6.13;;;27.10;97.40;;;;;;6181825;28;20570;-67
2022/06/28 06:24:36;;;;;;;8.45;6.50;;;27.10;96.90;;;;;;6166686;28;20274;-66
2022/06/28 06:27:50;;;;;;;9.02;6.40;;;27.20;96.90;;;;;;6167192;28;20283;-67
2022/06/28 06:30:55;;;;;;;8.55;6.35;;;27.30;97.20;;;;;;6167581;28;20279;-67
2022/06/28 06:34:20;;;;;;;17.42;5.60;;;27.40;96.40;;;;;;6167096;28;20279;-67
2022/06/28 06:37:29;;;;;;;6.95;5.90;;;27.40;95.80;;;;;;6181413;28;20473;-67
2022/06/28 06:40:38;;;;;;;8.05;6.40;;;27.50;96.30;;;;;;6181673;28;20274;-67
2022/06/28 06:43:43;;;;;;;7.07;6.05;;;27.60;96.00;;;;;;6181228;28;20295;-67
2022/06/28 06:46:52;;;;;;;5.80;5.50;;;27.70;95.60;;;;;;6165574;28;20469;-68
2022/06/28 06:49:58;;;;;;;7.68;6.25;;;27.80;94.80;;;;;;6181213;28;20554;-67
2022/06/28 06:53:04;;;;;;;9.90;5.63;;;27.80;94.40;;;;;;6166565;28;20274;-68
2022/06/28 06:56:13;;;;;;;6.03;5.55;;;27.80;94.00;;;;;;6180434;28;20298;-67
2022/06/28 06:59:19;;;;;;;15.00;6.32;;;27.90;94.40;;;;;;6180977;28;20274;-67
2022/06/28 07:02:25;;;;;;;16.45;6.00;;;28.00;94.30;;;;;;6181019;28;20279;-68
2022/06/28 07:05:33;;;;;;;24.83;6.38;;;28.10;94.10;;;;;;6180792;28;20549;-68
2022/06/28 07:08:38;;;;;;;6.80;6.18;;;28.20;94.20;;;;;;6184803;28;20454;-68
2022/06/28 07:11:47;;;;;;;14.48;6.50;;;28.20;93.80;;;;;;6172408;28;20273;-67
2022/06/28 07:14:53;;;;;;;8.77;6.15;;;28.20;94.30;;;;;;6172461;28;20278;-68
2022/06/28 07:18:02;;;;;;;6.75;6.13;;;28.30;93.80;;;;;;6188786;28;20504;-67
2022/06/28 07:21:07;;;;;;;6.43;6.03;;;28.30;94.50;;;;;;6189350;28;20273;-67
2022/06/28 07:24:13;;;;;;;14.63;5.88;;;28.40;94.30;;;;;;6172589;28;20274;-68
2022/06/28 07:27:20;;;;;;;6.55;6.15;;;28.50;94.20;;;;;;6172907;28;20281;-68
2022/06/28 07:30:26;;;;;;;10.23;6.25;;;28.50;94.60;;;;;;6189227;28;20463;-68
2022/06/28 07:33:31;;;;;;;8.10;6.22;;;28.60;93.60;;;;;;6172692;28;20568;-67
2022/06/28 07:36:37;;;;;;;6.78;6.18;;;28.70;93.60;;;;;;6172134;28;20298;-67
2022/06/28 07:39:43;;;;;;;8.02;6.07;;;28.80;94.40;;;;;;6172569;28;20274;-67
2022/06/28 07:43:08;;;;;;;9.23;5.97;;;29.00;93.00;;;;;;6189648;28;20553;-67
2022/06/28 07:46:24;;;;;;;10.38;5.70;;;29.00;92.00;;;;;;6172046;28;20274;-67
2022/06/28 07:52:49;;;;;;;5.75;5.45;;;29.00;92.60;;;;;;6171372;28;20274;-68
2022/06/28 07:56:00;;;;;;;7.93;5.88;;;29.10;91.60;;;;;;6171987;28;20273;-67
2022/06/28 07:59:13;;;;;;;14.50;5.85;;;29.20;92.10;;;;;;6171713;28;20301;-67
2022/06/28 08:02:19;;;;;;;7.82;5.78;;;29.20;91.70;;;;;;6171826;28;20278;-68
2022/06/28 08:05:30;;;;;;;8.40;5.70;;;29.30;91.80;;;;;;6154263;29;20337;-67
2022/06/28 08:08:35;;;;;;;16.55;7.15;;;29.40;91.00;;;;;;6173247;28;20613;-67
2022/06/28 08:11:41;;;;;;;19.77;5.82;;;29.40;90.30;;;;;;6179548;28;20565;-67
2022/06/28 08:14:51;;;;;;;22.67;6.32;;;29.40;90.50;;;;;;6163662;29;20274;-67
2022/06/28 08:17:57;;;;;;;13.90;6.00;;;29.50;90.60;;;;;;6179430;28;20294;-67
2022/06/28 08:21:02;;;;;;;8.25;5.50;;;29.60;90.00;;;;;;6179430;28;20302;-68
2022/06/28 08:24:08;;;;;;;6.10;5.60;;;29.60;90.30;;;;;;6179579;28;20279;-68
2022/06/28 08:27:14;;;;;;;6.70;6.10;;;29.60;88.10;;;;;;6179414;28;20282;-68
2022/06/28 08:30:22;;;;;;;7.22;5.57;;;29.80;90.10;;;;;;6178828;28;20274;-67
2022/06/28 08:33:27;;;;;;;6.40;5.50;;;29.80;88.80;;;;;;6179379;28;20274;-67
2022/06/28 08:36:33;;;;;;;22.63;6.72;;;29.80;89.20;;;;;;6164508;28;20274;-68
2022/06/28 08:39:38;;;;;;;23.85;6.20;;;29.70;89.00;;;;;;6164752;28;20290;-68
2022/06/28 08:42:49;;;;;;;13.20;5.57;;;29.80;87.40;;;;;;6164148;28;20455;-67
2022/06/28 08:45:56;;;;;;;16.10;5.75;;;29.70;88.40;;;;;;6178950;28;20318;-68
2022/06/28 08:49:05;;;;;;;10.05;5.97;;;29.70;88.10;;;;;;6164099;28;20298;-68
2022/06/28 08:52:12;;;;;;;11.35;5.65;;;29.70;87.40;;;;;;6164106;28;20271;-68
2022/06/28 08:55:17;;;;;;;9.18;5.50;;;29.60;87.00;;;;;;6164236;29;20273;-68
2022/06/28 08:58:23;;;;;;;17.85;6.03;;;29.60;85.90;;;;;;6163935;28;20302;-68
2022/06/28 09:01:29;;;;;;;21.27;6.25;;;29.60;86.10;;;;;;6164094;28;20274;-67
2022/06/28 09:04:35;;;;;;;5.18;4.97;;;29.50;85.80;;;;;;6164201;28;20461;-67
2022/06/28 09:07:40;;;;;;;13.50;6.15;;;29.60;85.70;;;;;;6174635;28;20306;-67
2022/06/28 09:10:45;;;;;;;11.05;6.18;;;29.50;85.30;;;;;;6187613;28;20445;-67
2022/06/28 09:13:54;;;;;;;13.52;5.60;;;29.40;85.30;;;;;;6187526;28;20273;-68
2022/06/28 09:17:22;;;;;;;10.60;5.57;;;29.50;86.20;;;;;;6187613;28;20561;-68
2022/06/28 09:20:41;;;;;;;11.50;5.40;;;29.50;85.90;;;;;;6187406;28;20581;-68
2022/06/28 09:23:48;;;;;;;21.98;6.15;;;29.50;85.60;;;;;;6187827;28;20274;-67
2022/06/28 09:26:55;;;;;;;8.75;5.68;;;29.50;85.40;;;;;;6187507;28;20278;-67
2022/06/28 09:30:11;;;;;;;6.57;5.55;;;29.50;85.20;;;;;;6187842;28;20274;-67
2022/06/28 09:33:29;;;;;;;9.65;5.97;;;29.50;84.40;;;;;;6187216;28;20274;-67
2022/06/28 09:36:36;;;;;;;9.82;5.50;;;29.50;84.60;;;;;;6187605;28;20278;-67
2022/06/28 09:39:48;;;;;;;6.28;5.38;;;29.50;84.30;;;;;;6187183;28;20294;-67
2022/06/28 09:43:07;;;;;;;6.13;5.53;;;29.60;84.40;;;;;;6189699;28;20278;-68
2022/06/28 09:46:13;;;;;;;6.43;5.57;;;29.60;82.70;;;;;;6191723;28;20274;-66
2022/06/28 09:49:20;;;;;;;7.25;5.32;;;29.70;83.20;;;;;;6191773;28;20293;-69
2022/06/28 09:52:29;;;;;;;11.57;6.00;;;29.70;82.10;;;;;;6191670;28;20273;-67
2022/06/28 09:55:35;;;;;;;5.88;5.53;;;29.70;83.00;;;;;;6192117;28;20574;-68
2022/06/28 09:58:41;;;;;;;5.82;5.30;;;29.70;83.60;;;;;;6191535;28;20293;-68
2022/06/28 10:01:47;;;;;;;7.43;5.68;;;29.70;85.50;;;;;;6191813;28;20275;-67
2022/06/28 10:04:54;;;;;;;8.43;5.57;;;29.80;83.60;;;;;;6178935;28;20271;-68
2022/06/28 10:08:00;;;;;;;8.60;6.03;;;29.70;83.50;;;;;;6167296;29;20589;-68
2022/06/28 10:11:06;;;;;;;5.57;5.28;;;29.70;83.70;;;;;;6167432;28;20279;-68
2022/06/28 10:17:57;;;;;;;8.18;5.90;;;29.60;82.40;;;;;;6166981;29;20274;-68
2022/06/28 10:21:04;;;;;;;10.77;6.43;;;29.70;82.10;;;;;;6167354;29;20294;-68
2022/06/28 10:24:09;;;;;;;9.70;6.47;;;29.70;85.70;;;;;;6167507;29;20274;-69
2022/06/28 10:27:15;;;;;;;15.48;6.90;;;29.60;87.20;;;;;;6166847;29;20275;-67
2022/06/28 10:30:27;;;;;;;19.73;6.50;;;29.60;88.10;;;;;;6167455;28;20278;-67
2022/06/28 10:33:42;;;;;;;7.35;6.78;;;29.60;87.50;;;;;;6167275;29;20275;-68
2022/06/28 10:36:53;;;;;;;14.57;6.22;;;29.60;87.80;;;;;;6166662;29;20271;-67
2022/06/28 10:40:30;;;;;;;9.05;6.50;;;29.60;87.90;;;;;;6166882;29;20294;-68
2022/06/28 10:43:48;;;;;;;10.00;6.18;;;29.60;84.40;;;;;;6166914;29;20270;-68
2022/06/28 10:47:10;;;;;;;7.97;6.22;;;29.70;84.00;;;;;;6166890;29;20275;-68
2022/06/28 10:50:17;;;;;;;6.22;5.60;;;29.60;85.00;;;;;;6166654;29;20566;-68
2022/06/28 10:53:24;;;;;;;23.90;6.20;;;29.70;83.60;;;;;;6166275;28;20555;-68
2022/06/28 10:56:29;;;;;;;11.70;6.22;;;29.80;83.40;;;;;;6166479;29;20274;-69
2022/06/28 10:59:37;;;;;;;16.73;6.07;;;29.80;83.80;;;;;;6166774;28;20294;-68
2022/06/28 11:03:00;;;;;;;6.18;5.57;;;29.70;82.80;;;;;;6166030;29;20274;-67
2022/06/28 11:06:08;;;;;;;8.35;6.22;;;29.80;84.30;;;;;;6167058;28;20271;-68
2022/06/28 11:09:27;;;;;;;8.38;5.47;;;29.90;82.10;;;;;;6186626;28;20500;-68
2022/06/28 11:12:41;;;;;;;12.20;5.78;;;29.90;82.20;;;;;;6190328;28;20269;-68
2022/06/28 11:15:47;;;;;;;12.88;6.10;;;29.90;83.50;;;;;;6190004;28;20274;-68
2022/06/28 11:19:06;;;;;;;10.45;5.80;;;29.90;82.10;;;;;;6190043;28;20273;-68
2022/06/28 11:22:12;;;;;;;5.93;5.63;;;29.90;82.40;;;;;;6189260;28;20459;-68
2022/06/28 11:25:20;;;;;;;7.82;5.57;;;29.90;81.80;;;;;;6189690;28;20464;-68
2022/06/28 11:28:24;;;;;;;10.63;5.78;;;29.90;83.20;;;;;;6189510;28;20274;-68
2022/06/28 11:31:31;;;;;;;6.20;5.75;;;29.90;81.10;;;;;;6189578;28;20293;-68
2022/06/28 11:34:37;;;;;;;12.07;6.30;;;30.00;81.40;;;;;;6189868;28;20270;-68
2022/06/28 11:37:52;;;;;;;6.75;6.13;;;30.10;80.20;;;;;;6189223;28;20293;-68
2022/06/28 11:40:59;;;;;;;14.25;6.30;;;29.90;79.10;;;;;;6189602;28;20297;-68
2022/06/28 11:44:04;;;;;;;6.93;6.30;;;30.00;79.00;;;;;;6189530;28;20540;-67
2022/06/28 11:47:10;;;;;;;13.07;6.50;;;29.90;78.60;;;;;;6189470;28;20273;-68
2022/06/28 11:50:18;;;;;;;5.93;5.63;;;29.90;79.60;;;;;;6189579;28;20340;-68
2022/06/28 11:53:25;;;;;;;6.20;5.65;;;29.80;79.50;;;;;;6189436;28;20274;-68
2022/06/28 11:56:44;;;;;;;16.13;6.07;;;29.70;80.50;;;;;;6189223;28;20278;-67
2022/06/28 11:59:54;;;;;;;8.35;6.00;;;29.70;79.90;;;;;;6189442;28;20273;-68
2022/06/28 12:03:02;;;;;;;5.82;5.53;;;29.70;81.00;;;;;;6188781;28;20274;-68
2022/06/28 12:06:22;;;;;;;6.72;6.15;;;29.90;80.60;;;;;;6164315;28;20426;-67
2022/06/28 12:09:28;;;;;;;12.25;6.15;;;29.90;81.10;;;;;;6165313;28;20298;-67
2022/06/28 12:12:42;;;;;;;7.68;6.25;;;29.90;80.30;;;;;;6165262;28;20480;-67
2022/06/28 12:15:48;;;;;;;6.80;6.10;;;29.80;80.40;;;;;;6165078;29;20270;-67
2022/06/28 12:18:54;;;;;;;6.80;6.28;;;29.90;80.70;;;;;;6165145;28;20287;-67
2022/06/28 12:22:01;;;;;;;6.85;6.05;;;29.90;80.30;;;;;;6164565;29;20298;-68
2022/06/28 12:25:10;;;;;;;6.65;6.10;;;29.80;81.80;;;;;;6164541;29;20278;-68
2022/06/28 12:28:20;;;;;;;6.72;6.32;;;29.90;81.30;;;;;;6164985;29;20270;-68
2022/06/28 12:31:26;;;;;;;6.15;5.85;;;29.90;80.60;;;;;;6164828;29;20277;-68
2022/06/28 12:34:31;;;;;;;6.35;5.80;;;30.00;81.10;;;;;;6164712;29;20278;-68
2022/06/28 12:37:38;;;;;;;8.77;5.75;;;29.90;79.90;;;;;;6164660;29;20293;-68
2022/06/28 12:40:44;;;;;;;6.63;6.15;;;29.80;80.00;;;;;;6164600;29;20444;-68
2022/06/28 12:43:50;;;;;;;6.50;6.13;;;29.90;79.80;;;;;;6164746;28;20274;-68
2022/06/28 12:46:56;;;;;;;6.38;5.88;;;30.00;79.70;;;;;;6164326;28;20278;-68
2022/06/28 12:50:04;;;;;;;6.70;6.18;;;29.90;79.60;;;;;;6164487;29;20278;-67
2022/06/28 12:53:12;;;;;;;6.93;6.07;;;30.00;80.70;;;;;;6164161;29;20283;-68
2022/06/28 12:56:17;;;;;;;10.07;6.65;;;30.10;80.70;;;;;;6164494;28;20279;-68
2022/06/28 12:59:23;;;;;;;7.13;6.35;;;30.10;80.10;;;;;;6164221;29;20273;-68
2022/06/28 13:02:29;;;;;;;6.43;5.78;;;30.10;80.70;;;;;;6163881;29;20294;-68
2022/06/28 13:05:34;;;;;;;7.40;6.00;;;30.00;78.70;;;;;;6164461;29;20271;-68
2022/06/28 13:08:40;;;;;;;7.28;6.35;;;30.00;78.40;;;;;;6180035;28;20301;-68
2022/06/28 13:11:45;;;;;;;6.85;5.90;;;30.00;79.60;;;;;;6188065;28;20277;-68
2022/06/28 13:14:52;;;;;;;5.90;5.55;;;30.10;79.60;;;;;;6188173;28;20286;-68
2022/06/28 13:18:00;;;;;;;6.55;5.95;;;29.90;77.00;;;;;;6190422;28;20279;-68
2022/06/28 13:21:06;;;;;;;5.68;5.47;;;29.80;77.20;;;;;;6192343;28;20298;-68
2022/06/28 13:24:11;;;;;;;6.18;5.15;;;29.90;77.60;;;;;;6192778;28;20273;-68
2022/06/28 13:27:16;;;;;;;6.15;5.60;;;30.00;78.40;;;;;;6192405;28;20549;-68
2022/06/28 13:30:23;;;;;;;6.72;5.65;;;30.00;77.80;;;;;;6192342;28;20277;-67
2022/06/28 13:33:29;;;;;;;9.55;6.38;;;30.30;76.80;;;;;;6192469;28;20574;-68
2022/06/28 13:36:35;;;;;;;7.93;5.60;;;30.40;76.10;;;;;;6192175;28;20462;-68
2022/06/28 13:39:40;;;;;;;5.97;5.68;;;30.50;75.00;;;;;;6192000;28;20450;-68
2022/06/28 13:42:45;;;;;;;7.25;6.13;;;30.30;76.10;;;;;;6191981;28;20290;-67
2022/06/28 13:45:52;;;;;;;6.47;5.72;;;30.30;77.40;;;;;;6191910;28;20457;-67
2022/06/28 13:48:57;;;;;;;6.18;5.85;;;30.40;76.10;;;;;;6191404;28;20466;-68
2022/06/28 13:52:02;;;;;;;9.43;6.40;;;30.70;75.70;;;;;;6192167;28;20277;-68
2022/06/28 13:55:10;;;;;;;14.75;6.60;;;31.00;74.40;;;;;;6191715;28;20273;-68
2022/06/28 13:58:16;;;;;;;6.70;5.97;;;30.60;74.70;;;;;;6192080;28;20274;-68
2022/06/28 14:01:23;;;;;;;6.50;5.93;;;30.40;76.20;;;;;;6191981;28;20460;-68
2022/06/28 14:04:28;;;;;;;6.90;6.20;;;30.20;76.10;;;;;;6182245;28;20530;-68
2022/06/28 14:07:34;;;;;;;6.85;6.43;;;30.30;75.80;;;;;;6167564;28;20306;-68
2022/06/28 14:10:39;;;;;;;6.38;5.95;;;30.20;75.40;;;;;;6167483;29;20278;-68
2022/06/28 14:13:51;;;;;;;8.98;6.10;;;30.60;74.80;;;;;;6167851;29;20282;-68
2022/06/28 14:16:57;;;;;;;7.07;6.20;;;30.90;74.10;;;;;;6167192;29;20279;-68
2022/06/28 14:20:06;;;;;;;6.32;5.97;;;30.60;73.80;;;;;;6167642;29;20274;-68
2022/06/28 14:23:13;;;;;;;7.00;6.20;;;30.40;75.50;;;;;;6167214;29;20315;-68
2022/06/28 14:26:19;;;;;;;7.95;6.07;;;30.20;75.10;;;;;;6167474;28;20270;-68
2022/06/28 14:29:25;;;;;;;6.70;6.20;;;30.10;75.90;;;;;;6166022;28;20279;-68
2022/06/28 14:32:32;;;;;;;6.97;6.50;;;30.00;75.70;;;;;;6166880;29;20283;-68
2022/06/28 14:35:38;;;;;;;6.18;5.72;;;30.10;75.50;;;;;;6166843;29;20274;-67
2022/06/28 14:38:53;;;;;;;8.90;6.18;;;29.90;75.60;;;;;;6167016;29;20574;-67
2022/06/28 14:41:59;;;;;;;6.85;5.97;;;29.80;76.30;;;;;;6167003;29;20454;-67
2022/06/28 14:45:08;;;;;;;7.30;6.13;;;29.60;77.60;;;;;;6166887;29;20590;-68
2022/06/28 14:48:19;;;;;;;6.03;5.63;;;29.50;77.30;;;;;;6166496;29;20270;-68
2022/06/28 14:51:25;;;;;;;6.65;5.95;;;29.40;77.80;;;;;;6166864;28;20573;-67
2022/06/28 14:54:30;;;;;;;7.45;6.40;;;29.40;77.80;;;;;;6166738;29;20278;-67
2022/06/28 14:57:35;;;;;;;7.65;6.18;;;29.50;78.30;;;;;;6166668;29;20279;-67
2022/06/28 15:00:41;;;;;;;7.55;6.40;;;29.60;78.10;;;;;;6166722;29;20275;-68
2022/06/28 15:03:47;;;;;;;6.65;6.10;;;29.60;79.20;;;;;;6166659;28;20282;-67
2022/06/28 15:06:53;;;;;;;7.00;6.50;;;29.60;78.40;;;;;;6167995;28;20550;-68
2022/06/28 15:09:59;;;;;;;6.70;6.25;;;29.40;78.40;;;;;;6190208;28;20278;-67
2022/06/28 15:13:04;;;;;;;6.90;6.40;;;29.30;79.30;;;;;;6190231;28;20277;-68
2022/06/28 15:16:11;;;;;;;8.40;6.30;;;29.20;79.00;;;;;;6190145;28;20278;-67
2022/06/28 15:19:18;;;;;;;7.32;6.43;;;29.20;80.00;;;;;;6190085;28;20569;-68
2022/06/28 15:32:34;;;;;;;6.90;6.35;;;29.10;79.90;;;;;;6189860;28;20274;-68
2022/06/28 15:35:40;;;;;;;7.57;6.38;;;29.00;80.10;;;;;;6189781;28;20274;-68
2022/06/28 15:38:45;;;;;;;9.68;6.47;;;29.10;80.10;;;;;;6189150;28;20273;-69
2022/06/28 15:41:50;;;;;;;7.03;6.40;;;29.10;82.60;;;;;;6189419;28;20273;-68
2022/06/28 15:44:56;;;;;;;8.02;6.43;;;29.00;81.60;;;;;;6189508;28;20294;-69
2022/06/28 15:48:02;;;;;;;7.20;6.60;;;29.10;82.10;;;;;;6189612;28;20210;-68
2022/06/28 15:51:10;;;;;;;6.78;6.47;;;29.20;81.30;;;;;;6189333;28;20291;-68
2022/06/28 15:54:15;;;;;;;7.88;6.68;;;29.20;84.70;;;;;;6189512;28;20278;-68
2022/06/28 15:57:21;;;;;;;8.20;6.55;;;29.40;81.40;;;;;;6189332;28;20294;-67
2022/06/28 16:00:26;;;;;;;7.93;6.28;;;29.40;80.30;;;;;;6188940;28;20270;-67
2022/06/28 16:03:31;;;;;;;6.28;5.90;;;29.30;81.00;;;;;;6187319;28;20289;-69
2022/06/28 16:06:38;;;;;;;7.00;6.25;;;29.30;80.00;;;;;;6164940;29;20650;-68
2022/06/28 16:09:43;;;;;;;7.20;6.53;;;29.30;79.50;;;;;;6179397;28;20275;-68
2022/06/28 16:12:56;;;;;;;6.88;6.32;;;29.40;78.90;;;;;;6164773;28;20279;-68
2022/06/28 16:16:01;;;;;;;9.55;6.90;;;29.30;78.00;;;;;;6164617;28;20275;-68
2022/06/28 16:19:07;;;;;;;6.30;5.88;;;29.20;78.40;;;;;;6165297;28;20363;-68
2022/06/28 16:22:35;;;;;;;7.75;6.53;;;29.00;80.10;;;;;;6164411;28;20274;-68
2022/06/28 16:25:40;;;;;;;7.28;6.55;;;29.00;79.90;;;;;;6164787;28;20294;-68
2022/06/28 16:28:51;;;;;;;8.10;6.70;;;28.90;80.60;;;;;;6164844;28;20322;-68
2022/06/28 16:31:58;;;;;;;7.20;6.65;;;28.80;81.30;;;;;;6164992;28;20274;-68
2022/06/28 16:35:05;;;;;;;7.93;6.70;;;28.80;82.70;;;;;;6164843;28;20278;-69
2022/06/28 16:38:11;;;;;;;7.28;6.80;;;28.90;81.20;;;;;;6164383;28;20270;-68